sensor_id;sensor_type;location;lat;lon;timestamp;temperature;humidity
21801;DHT22;11062;51.164;16.924;2023-04-24T00:01:35;35.20;39.20
21801;DHT22;11062;51.164;16.924;2023-04-24T00:04:02;35.20;40.00
21801;DHT22;11062;51.164;16.924;2023-04-24T00:06:29;35.10;39.40
21801;DHT22;11062;51.164;16.924;2023-04-24T00:09:01;35.10;39.60
21801;DHT22;11062;51.164;16.924;2023-04-24T00:11:28;35.10;39.60
21801;DHT22;11062;51.164;16.924;2023-04-24T00:13:57;35.00;39.70
21801;DHT22;11062;51.164;16.924;2023-04-24T00:16:23;35.00;39.70
21801;DHT22;11062;51.164;16.924;2023-04-24T00:18:54;35.10;39.80
21801;DHT22;11062;51.164;16.924;2023-04-24T00:21:21;35.00;39.90
21801;DHT22;11062;51.164;16.924;2023-04-24T00:23:47;35.00;39.90
21801;DHT22;11062;51.164;16.924;2023-04-24T00:26:14;35.00;39.90
21801;DHT22;11062;51.164;16.924;2023-04-24T00:28:40;35.00;39.70
21801;DHT22;11062;51.164;16.924;2023-04-24T00:31:06;35.00;39.90
21801;DHT22;11062;51.164;16.924;2023-04-24T00:33:36;35.00;39.90
21801;DHT22;11062;51.164;16.924;2023-04-24T00:36:02;35.00;39.20
21801;DHT22;11062;51.164;16.924;2023-04-24T00:38:30;35.00;39.70
21801;DHT22;11062;51.164;16.924;2023-04-24T00:40:56;35.00;39.60
21801;DHT22;11062;51.164;16.924;2023-04-24T00:43:22;35.00;39.50
21801;DHT22;11062;51.164;16.924;2023-04-24T00:45:51;34.80;39.40
21801;DHT22;11062;51.164;16.924;2023-04-24T00:48:18;34.80;39.60
21801;DHT22;11062;51.164;16.924;2023-04-24T00:50:44;34.80;39.60
21801;DHT22;11062;51.164;16.924;2023-04-24T00:53:11;34.80;39.60
21801;DHT22;11062;51.164;16.924;2023-04-24T00:55:37;34.80;39.70
21801;DHT22;11062;51.164;16.924;2023-04-24T00:58:03;34.80;39.60
21801;DHT22;11062;51.164;16.924;2023-04-24T01:00:30;34.80;39.60
21801;DHT22;11062;51.164;16.924;2023-04-24T01:02:59;34.80;39.50
21801;DHT22;11062;51.164;16.924;2023-04-24T01:05:26;34.70;39.50
21801;DHT22;11062;51.164;16.924;2023-04-24T01:07:52;34.60;39.20
21801;DHT22;11062;51.164;16.924;2023-04-24T01:10:18;34.50;40.10
21801;DHT22;11062;51.164;16.924;2023-04-24T01:12:46;34.30;39.70
21801;DHT22;11062;51.164;16.924;2023-04-24T01:15:12;34.30;39.50
21801;DHT22;11062;51.164;16.924;2023-04-24T01:17:41;34.40;39.50
21801;DHT22;11062;51.164;16.924;2023-04-24T01:20:07;34.50;39.40
21801;DHT22;11062;51.164;16.924;2023-04-24T01:22:36;34.50;39.20
21801;DHT22;11062;51.164;16.924;2023-04-24T01:25:05;34.50;39.00
21801;DHT22;11062;51.164;16.924;2023-04-24T01:27:31;34.60;39.10
21801;DHT22;11062;51.164;16.924;2023-04-24T01:29:57;34.70;39.10
21801;DHT22;11062;51.164;16.924;2023-04-24T01:32:29;34.50;39.10
21801;DHT22;11062;51.164;16.924;2023-04-24T01:34:55;34.50;39.30
21801;DHT22;11062;51.164;16.924;2023-04-24T01:37:21;34.50;40.30
21801;DHT22;11062;51.164;16.924;2023-04-24T01:39:47;34.50;39.20
21801;DHT22;11062;51.164;16.924;2023-04-24T01:42:13;34.60;39.20
21801;DHT22;11062;51.164;16.924;2023-04-24T01:44:40;34.60;39.00
21801;DHT22;11062;51.164;16.924;2023-04-24T01:47:13;34.50;39.30
21801;DHT22;11062;51.164;16.924;2023-04-24T01:49:42;34.40;39.20
21801;DHT22;11062;51.164;16.924;2023-04-24T01:52:08;34.50;39.50
21801;DHT22;11062;51.164;16.924;2023-04-24T01:54:34;34.50;39.40
21801;DHT22;11062;51.164;16.924;2023-04-24T01:57:00;34.50;39.30
21801;DHT22;11062;51.164;16.924;2023-04-24T01:59:28;34.50;39.10
21801;DHT22;11062;51.164;16.924;2023-04-24T02:02:01;34.50;39.30
21801;DHT22;11062;51.164;16.924;2023-04-24T02:04:28;34.70;39.30
21801;DHT22;11062;51.164;16.924;2023-04-24T02:06:56;34.70;39.00
21801;DHT22;11062;51.164;16.924;2023-04-24T02:09:24;34.80;39.20
21801;DHT22;11062;51.164;16.924;2023-04-24T02:11:50;34.80;39.10
21801;DHT22;11062;51.164;16.924;2023-04-24T02:14:19;34.90;38.70
21801;DHT22;11062;51.164;16.924;2023-04-24T02:16:45;34.90;38.90
21801;DHT22;11062;51.164;16.924;2023-04-24T02:19:11;34.90;38.90
21801;DHT22;11062;51.164;16.924;2023-04-24T02:21:39;34.90;38.70
21801;DHT22;11062;51.164;16.924;2023-04-24T02:24:05;35.00;39.00
21801;DHT22;11062;51.164;16.924;2023-04-24T02:26:31;35.00;38.80
21801;DHT22;11062;51.164;16.924;2023-04-24T02:29:00;35.00;38.60
21801;DHT22;11062;51.164;16.924;2023-04-24T02:31:30;34.90;38.70
21801;DHT22;11062;51.164;16.924;2023-04-24T02:34:01;34.90;38.60
21801;DHT22;11062;51.164;16.924;2023-04-24T02:36:27;35.00;38.60
21801;DHT22;11062;51.164;16.924;2023-04-24T02:39:00;34.90;38.60
21801;DHT22;11062;51.164;16.924;2023-04-24T02:41:27;34.90;38.70
21801;DHT22;11062;51.164;16.924;2023-04-24T02:44:04;34.90;38.60
21801;DHT22;11062;51.164;16.924;2023-04-24T02:46:33;34.90;38.50
21801;DHT22;11062;51.164;16.924;2023-04-24T02:48:59;34.90;38.60
21801;DHT22;11062;51.164;16.924;2023-04-24T02:51:25;34.90;38.70
21801;DHT22;11062;51.164;16.924;2023-04-24T02:53:55;34.90;38.70
21801;DHT22;11062;51.164;16.924;2023-04-24T02:56:23;34.90;38.70
21801;DHT22;11062;51.164;16.924;2023-04-24T02:58:49;34.90;38.90
21801;DHT22;11062;51.164;16.924;2023-04-24T03:01:17;34.90;38.70
21801;DHT22;11062;51.164;16.924;2023-04-24T03:03:43;34.90;38.70
21801;DHT22;11062;51.164;16.924;2023-04-24T03:06:21;34.90;38.90
21801;DHT22;11062;51.164;16.924;2023-04-24T03:08:53;34.90;38.20
21801;DHT22;11062;51.164;16.924;2023-04-24T03:11:25;34.90;38.10
21801;DHT22;11062;51.164;16.924;2023-04-24T03:13:51;34.90;37.50
21801;DHT22;11062;51.164;16.924;2023-04-24T03:16:17;34.80;37.90
21801;DHT22;11062;51.164;16.924;2023-04-24T03:18:46;34.80;38.30
21801;DHT22;11062;51.164;16.924;2023-04-24T03:21:12;34.90;38.10
21801;DHT22;11062;51.164;16.924;2023-04-24T03:23:38;34.90;37.90
21801;DHT22;11062;51.164;16.924;2023-04-24T03:26:06;34.80;38.20
21801;DHT22;11062;51.164;16.924;2023-04-24T03:28:32;34.90;38.10
21801;DHT22;11062;51.164;16.924;2023-04-24T03:30:58;34.80;38.00
21801;DHT22;11062;51.164;16.924;2023-04-24T03:33:24;34.80;38.00
21801;DHT22;11062;51.164;16.924;2023-04-24T03:35:50;34.80;38.20
21801;DHT22;11062;51.164;16.924;2023-04-24T03:38:19;34.80;38.10
21801;DHT22;11062;51.164;16.924;2023-04-24T03:40:47;34.80;38.00
21801;DHT22;11062;51.164;16.924;2023-04-24T03:43:16;34.60;38.40
21801;DHT22;11062;51.164;16.924;2023-04-24T03:45:45;34.40;37.80
21801;DHT22;11062;51.164;16.924;2023-04-24T03:48:11;34.30;38.00
21801;DHT22;11062;51.164;16.924;2023-04-24T03:50:39;34.20;38.10
21801;DHT22;11062;51.164;16.924;2023-04-24T03:53:05;34.30;38.10
21801;DHT22;11062;51.164;16.924;2023-04-24T03:55:31;34.40;38.40
21801;DHT22;11062;51.164;16.924;2023-04-24T03:57:57;34.50;38.40
21801;DHT22;11062;51.164;16.924;2023-04-24T04:00:26;34.50;38.30
21801;DHT22;11062;51.164;16.924;2023-04-24T04:02:52;34.60;37.90
21801;DHT22;11062;51.164;16.924;2023-04-24T04:05:18;34.70;38.10
21801;DHT22;11062;51.164;16.924;2023-04-24T04:07:44;34.70;38.10
21801;DHT22;11062;51.164;16.924;2023-04-24T04:10:12;34.70;38.10
21801;DHT22;11062;51.164;16.924;2023-04-24T04:12:38;34.80;38.10
21801;DHT22;11062;51.164;16.924;2023-04-24T04:15:08;34.80;38.00
21801;DHT22;11062;51.164;16.924;2023-04-24T04:17:34;34.80;38.20
21801;DHT22;11062;51.164;16.924;2023-04-24T04:20:00;34.80;38.40
21801;DHT22;11062;51.164;16.924;2023-04-24T04:22:26;34.80;38.00
21801;DHT22;11062;51.164;16.924;2023-04-24T04:24:52;34.80;37.80
21801;DHT22;11062;51.164;16.924;2023-04-24T04:27:18;34.80;38.00
21801;DHT22;11062;51.164;16.924;2023-04-24T04:29:44;34.80;37.90
21801;DHT22;11062;51.164;16.924;2023-04-24T04:32:11;34.80;38.10
21801;DHT22;11062;51.164;16.924;2023-04-24T04:34:37;34.80;38.10
21801;DHT22;11062;51.164;16.924;2023-04-24T04:37:03;34.70;37.90
21801;DHT22;11062;51.164;16.924;2023-04-24T04:39:29;34.80;37.80
21801;DHT22;11062;51.164;16.924;2023-04-24T04:41:56;34.80;37.80
21801;DHT22;11062;51.164;16.924;2023-04-24T04:44:22;34.80;38.00
21801;DHT22;11062;51.164;16.924;2023-04-24T04:46:49;34.80;37.60
21801;DHT22;11062;51.164;16.924;2023-04-24T04:49:19;34.80;37.90
21801;DHT22;11062;51.164;16.924;2023-04-24T04:51:47;34.90;38.10
21801;DHT22;11062;51.164;16.924;2023-04-24T04:54:26;34.90;38.10
21801;DHT22;11062;51.164;16.924;2023-04-24T04:56:54;34.90;38.00
21801;DHT22;11062;51.164;16.924;2023-04-24T04:59:21;35.00;38.00
21801;DHT22;11062;51.164;16.924;2023-04-24T05:01:49;35.00;38.10
21801;DHT22;11062;51.164;16.924;2023-04-24T05:04:15;35.10;38.30
21801;DHT22;11062;51.164;16.924;2023-04-24T05:06:41;35.20;38.40
21801;DHT22;11062;51.164;16.924;2023-04-24T05:09:10;35.20;38.60
21801;DHT22;11062;51.164;16.924;2023-04-24T05:11:36;35.20;38.40
21801;DHT22;11062;51.164;16.924;2023-04-24T05:14:02;35.30;37.70
21801;DHT22;11062;51.164;16.924;2023-04-24T05:16:28;35.30;37.50
21801;DHT22;11062;51.164;16.924;2023-04-24T05:18:54;35.40;37.20
21801;DHT22;11062;51.164;16.924;2023-04-24T05:21:20;35.30;36.80
21801;DHT22;11062;51.164;16.924;2023-04-24T05:23:50;35.30;36.60
21801;DHT22;11062;51.164;16.924;2023-04-24T05:26:18;35.30;36.80
21801;DHT22;11062;51.164;16.924;2023-04-24T05:28:44;35.30;36.50
21801;DHT22;11062;51.164;16.924;2023-04-24T05:31:10;35.10;36.40
21801;DHT22;11062;51.164;16.924;2023-04-24T05:33:44;35.00;36.80
21801;DHT22;11062;51.164;16.924;2023-04-24T05:36:13;35.20;36.40
21801;DHT22;11062;51.164;16.924;2023-04-24T05:38:40;35.30;36.40
21801;DHT22;11062;51.164;16.924;2023-04-24T05:41:06;35.20;36.20
21801;DHT22;11062;51.164;16.924;2023-04-24T05:43:32;35.30;36.80
21801;DHT22;11062;51.164;16.924;2023-04-24T05:46:04;35.20;35.80
21801;DHT22;11062;51.164;16.924;2023-04-24T05:48:30;35.10;36.20
21801;DHT22;11062;51.164;16.924;2023-04-24T05:50:56;34.80;36.30
21801;DHT22;11062;51.164;16.924;2023-04-24T05:53:22;34.60;36.50
21801;DHT22;11062;51.164;16.924;2023-04-24T05:55:48;34.70;36.60
21801;DHT22;11062;51.164;16.924;2023-04-24T05:58:19;34.80;36.40
21801;DHT22;11062;51.164;16.924;2023-04-24T06:00:48;34.50;36.50
21801;DHT22;11062;51.164;16.924;2023-04-24T06:03:15;34.60;36.80
21801;DHT22;11062;51.164;16.924;2023-04-24T06:05:47;34.50;36.50
21801;DHT22;11062;51.164;16.924;2023-04-24T06:08:16;34.70;36.80
21801;DHT22;11062;51.164;16.924;2023-04-24T06:10:44;34.90;37.00
21801;DHT22;11062;51.164;16.924;2023-04-24T06:13:11;35.00;36.80
21801;DHT22;11062;51.164;16.924;2023-04-24T06:15:37;35.10;36.50
21801;DHT22;11062;51.164;16.924;2023-04-24T06:18:03;35.10;36.20
21801;DHT22;11062;51.164;16.924;2023-04-24T06:20:30;35.20;36.20
21801;DHT22;11062;51.164;16.924;2023-04-24T06:22:56;35.30;36.30
21801;DHT22;11062;51.164;16.924;2023-04-24T06:25:24;35.40;36.30
21801;DHT22;11062;51.164;16.924;2023-04-24T06:27:50;35.50;36.10
21801;DHT22;11062;51.164;16.924;2023-04-24T06:30:19;35.60;35.90
21801;DHT22;11062;51.164;16.924;2023-04-24T06:32:45;35.70;36.20
21801;DHT22;11062;51.164;16.924;2023-04-24T06:35:14;35.70;35.60
21801;DHT22;11062;51.164;16.924;2023-04-24T06:37:43;35.80;35.50
21801;DHT22;11062;51.164;16.924;2023-04-24T06:40:12;35.80;35.40
21801;DHT22;11062;51.164;16.924;2023-04-24T06:42:38;35.70;35.80
21801;DHT22;11062;51.164;16.924;2023-04-24T06:45:04;35.80;35.50
21801;DHT22;11062;51.164;16.924;2023-04-24T06:47:31;35.80;35.50
21801;DHT22;11062;51.164;16.924;2023-04-24T06:49:57;35.90;35.70
21801;DHT22;11062;51.164;16.924;2023-04-24T06:52:23;35.90;35.60
21801;DHT22;11062;51.164;16.924;2023-04-24T06:54:49;36.00;35.90
21801;DHT22;11062;51.164;16.924;2023-04-24T06:57:15;35.90;35.60
21801;DHT22;11062;51.164;16.924;2023-04-24T06:59:44;35.90;35.60
21801;DHT22;11062;51.164;16.924;2023-04-24T07:02:10;36.00;35.60
21801;DHT22;11062;51.164;16.924;2023-04-24T07:04:36;36.20;35.50
21801;DHT22;11062;51.164;16.924;2023-04-24T07:07:02;36.30;35.30
21801;DHT22;11062;51.164;16.924;2023-04-24T07:09:28;36.30;34.70
21801;DHT22;11062;51.164;16.924;2023-04-24T07:11:54;36.30;35.20
21801;DHT22;11062;51.164;16.924;2023-04-24T07:14:23;36.40;34.90
21801;DHT22;11062;51.164;16.924;2023-04-24T07:16:49;36.40;34.80
21801;DHT22;11062;51.164;16.924;2023-04-24T07:19:15;36.10;35.20
21801;DHT22;11062;51.164;16.924;2023-04-24T07:21:41;36.20;35.40
21801;DHT22;11062;51.164;16.924;2023-04-24T07:24:10;36.20;35.40
21801;DHT22;11062;51.164;16.924;2023-04-24T07:26:38;36.20;35.60
21801;DHT22;11062;51.164;16.924;2023-04-24T07:29:13;36.20;35.60
21801;DHT22;11062;51.164;16.924;2023-04-24T07:31:42;36.30;35.90
21801;DHT22;11062;51.164;16.924;2023-04-24T07:34:09;36.10;35.40
21801;DHT22;11062;51.164;16.924;2023-04-24T07:36:37;36.00;35.60
21801;DHT22;11062;51.164;16.924;2023-04-24T07:39:07;35.90;35.80
21801;DHT22;11062;51.164;16.924;2023-04-24T07:41:35;35.80;36.10
21801;DHT22;11062;51.164;16.924;2023-04-24T07:44:01;35.80;36.30
21801;DHT22;11062;51.164;16.924;2023-04-24T07:46:27;35.80;36.40
21801;DHT22;11062;51.164;16.924;2023-04-24T07:49:01;35.60;36.80
21801;DHT22;11062;51.164;16.924;2023-04-24T07:51:29;35.40;36.60
21801;DHT22;11062;51.164;16.924;2023-04-24T07:54:06;34.90;36.70
21801;DHT22;11062;51.164;16.924;2023-04-24T07:56:33;35.00;37.10
21801;DHT22;11062;51.164;16.924;2023-04-24T07:59:04;35.00;37.30
21801;DHT22;11062;51.164;16.924;2023-04-24T08:01:30;35.00;37.10
21801;DHT22;11062;51.164;16.924;2023-04-24T08:03:59;34.90;36.80
21801;DHT22;11062;51.164;16.924;2023-04-24T08:06:26;35.20;37.50
21801;DHT22;11062;51.164;16.924;2023-04-24T08:08:56;35.30;37.40
21801;DHT22;11062;51.164;16.924;2023-04-24T08:11:28;35.30;37.00
21801;DHT22;11062;51.164;16.924;2023-04-24T08:13:58;35.30;37.10
21801;DHT22;11062;51.164;16.924;2023-04-24T08:16:30;35.50;37.40
21801;DHT22;11062;51.164;16.924;2023-04-24T08:18:58;35.40;36.70
21801;DHT22;11062;51.164;16.924;2023-04-24T08:21:32;35.30;36.60
21801;DHT22;11062;51.164;16.924;2023-04-24T08:23:59;35.40;36.80
21801;DHT22;11062;51.164;16.924;2023-04-24T08:26:25;35.20;37.00
21801;DHT22;11062;51.164;16.924;2023-04-24T08:28:57;35.40;36.90
21801;DHT22;11062;51.164;16.924;2023-04-24T08:31:23;35.00;37.60
21801;DHT22;11062;51.164;16.924;2023-04-24T08:34:04;35.10;37.60
21801;DHT22;11062;51.164;16.924;2023-04-24T08:36:31;35.40;37.40
21801;DHT22;11062;51.164;16.924;2023-04-24T08:39:01;35.50;37.20
21801;DHT22;11062;51.164;16.924;2023-04-24T08:41:30;35.60;36.60
21801;DHT22;11062;51.164;16.924;2023-04-24T08:43:57;35.70;37.10
21801;DHT22;11062;51.164;16.924;2023-04-24T08:46:24;35.80;37.10
21801;DHT22;11062;51.164;16.924;2023-04-24T08:48:52;35.90;37.00
21801;DHT22;11062;51.164;16.924;2023-04-24T08:51:26;35.80;36.30
21801;DHT22;11062;51.164;16.924;2023-04-24T08:53:54;35.90;36.20
21801;DHT22;11062;51.164;16.924;2023-04-24T08:56:24;36.00;36.30
21801;DHT22;11062;51.164;16.924;2023-04-24T08:58:54;36.10;36.40
21801;DHT22;11062;51.164;16.924;2023-04-24T09:01:24;36.20;36.20
21801;DHT22;11062;51.164;16.924;2023-04-24T09:03:51;36.30;36.60
21801;DHT22;11062;51.164;16.924;2023-04-24T09:06:19;36.20;36.40
21801;DHT22;11062;51.164;16.924;2023-04-24T09:08:54;36.10;36.40
21801;DHT22;11062;51.164;16.924;2023-04-24T09:11:25;36.00;36.60
21801;DHT22;11062;51.164;16.924;2023-04-24T09:13:54;36.20;36.90
21801;DHT22;11062;51.164;16.924;2023-04-24T09:16:29;36.20;36.90
21801;DHT22;11062;51.164;16.924;2023-04-24T09:18:59;36.20;36.50
21801;DHT22;11062;51.164;16.924;2023-04-24T09:21:35;36.30;36.90
21801;DHT22;11062;51.164;16.924;2023-04-24T09:24:08;36.30;37.60
21801;DHT22;11062;51.164;16.924;2023-04-24T09:26:40;36.10;37.60
21801;DHT22;11062;51.164;16.924;2023-04-24T09:29:06;36.00;37.30
21801;DHT22;11062;51.164;16.924;2023-04-24T09:31:35;35.90;37.80
21801;DHT22;11062;51.164;16.924;2023-04-24T09:34:04;35.80;38.60
21801;DHT22;11062;51.164;16.924;2023-04-24T09:36:34;35.60;38.30
21801;DHT22;11062;51.164;16.924;2023-04-24T09:39:08;35.30;38.90
21801;DHT22;11062;51.164;16.924;2023-04-24T09:41:44;35.30;38.60
21801;DHT22;11062;51.164;16.924;2023-04-24T09:44:22;35.40;37.90
21801;DHT22;11062;51.164;16.924;2023-04-24T09:46:58;35.10;38.10
21801;DHT22;11062;51.164;16.924;2023-04-24T09:49:29;35.10;38.10
21801;DHT22;11062;51.164;16.924;2023-04-24T09:52:06;35.20;37.90
21801;DHT22;11062;51.164;16.924;2023-04-24T09:54:32;35.10;36.60
21801;DHT22;11062;51.164;16.924;2023-04-24T09:56:58;35.30;37.10
21801;DHT22;11062;51.164;16.924;2023-04-24T09:59:26;35.40;36.70
21801;DHT22;11062;51.164;16.924;2023-04-24T10:01:52;35.60;36.90
21801;DHT22;11062;51.164;16.924;2023-04-24T10:04:26;35.90;36.50
21801;DHT22;11062;51.164;16.924;2023-04-24T10:06:54;36.00;36.30
21801;DHT22;11062;51.164;16.924;2023-04-24T10:09:25;36.00;36.50
21801;DHT22;11062;51.164;16.924;2023-04-24T10:11:55;36.20;36.50
21801;DHT22;11062;51.164;16.924;2023-04-24T10:14:24;36.20;36.40
21801;DHT22;11062;51.164;16.924;2023-04-24T10:16:54;36.20;36.50
21801;DHT22;11062;51.164;16.924;2023-04-24T10:19:25;36.10;36.70
21801;DHT22;11062;51.164;16.924;2023-04-24T10:21:52;36.30;37.00
21801;DHT22;11062;51.164;16.924;2023-04-24T10:24:20;36.10;36.40
21801;DHT22;11062;51.164;16.924;2023-04-24T10:26:54;36.30;37.00
21801;DHT22;11062;51.164;16.924;2023-04-24T10:29:20;36.30;37.20
21801;DHT22;11062;51.164;16.924;2023-04-24T10:31:47;36.20;37.10
21801;DHT22;11062;51.164;16.924;2023-04-24T10:34:16;36.20;37.20
21801;DHT22;11062;51.164;16.924;2023-04-24T10:36:48;36.00;37.20
21801;DHT22;11062;51.164;16.924;2023-04-24T10:39:16;36.10;37.30
21801;DHT22;11062;51.164;16.924;2023-04-24T10:41:50;36.20;37.30
21801;DHT22;11062;51.164;16.924;2023-04-24T10:44:16;36.10;37.40
21801;DHT22;11062;51.164;16.924;2023-04-24T10:46:44;36.20;38.20
21801;DHT22;11062;51.164;16.924;2023-04-24T10:49:10;36.30;37.90
21801;DHT22;11062;51.164;16.924;2023-04-24T10:51:51;36.00;37.20
21801;DHT22;11062;51.164;16.924;2023-04-24T10:54:46;36.20;37.50
21801;DHT22;11062;51.164;16.924;2023-04-24T10:59:49;36.00;37.20
21801;DHT22;11062;51.164;16.924;2023-04-24T11:02:17;36.10;37.80
21801;DHT22;11062;51.164;16.924;2023-04-24T11:04:43;36.10;37.80
21801;DHT22;11062;51.164;16.924;2023-04-24T11:07:11;35.90;37.80
21801;DHT22;11062;51.164;16.924;2023-04-24T11:09:37;36.10;37.10
21801;DHT22;11062;51.164;16.924;2023-04-24T11:12:14;36.00;37.00
21801;DHT22;11062;51.164;16.924;2023-04-24T11:17:38;36.00;36.80
21801;DHT22;11062;51.164;16.924;2023-04-24T11:20:17;36.00;37.10
21801;DHT22;11062;51.164;16.924;2023-04-24T11:22:43;35.70;37.20
21801;DHT22;11062;51.164;16.924;2023-04-24T11:25:12;35.50;37.30
21801;DHT22;11062;51.164;16.924;2023-04-24T11:27:43;35.50;37.80
21801;DHT22;11062;51.164;16.924;2023-04-24T11:30:20;35.50;37.80
21801;DHT22;11062;51.164;16.924;2023-04-24T11:32:52;35.70;37.90
21801;DHT22;11062;51.164;16.924;2023-04-24T11:35:24;35.70;38.10
21801;DHT22;11062;51.164;16.924;2023-04-24T11:37:55;35.80;37.80
21801;DHT22;11062;51.164;16.924;2023-04-24T11:40:28;35.80;37.60
21801;DHT22;11062;51.164;16.924;2023-04-24T11:43:02;35.60;37.80
21801;DHT22;11062;51.164;16.924;2023-04-24T11:45:31;35.60;38.00
21801;DHT22;11062;51.164;16.924;2023-04-24T11:47:57;35.70;38.00
21801;DHT22;11062;51.164;16.924;2023-04-24T11:50:27;35.70;38.20
21801;DHT22;11062;51.164;16.924;2023-04-24T11:52:57;35.50;37.80
21801;DHT22;11062;51.164;16.924;2023-04-24T13:27:46;33.60;36.30
21801;DHT22;11062;51.164;16.924;2023-04-24T13:30:16;33.50;37.00
21801;DHT22;11062;51.164;16.924;2023-04-24T13:33:23;33.30;36.10
21801;DHT22;11062;51.164;16.924;2023-04-24T13:39:30;33.20;35.70
21801;DHT22;11062;51.164;16.924;2023-04-24T13:46:33;33.40;35.70
21801;DHT22;11062;51.164;16.924;2023-04-24T13:56:50;34.00;35.90
21801;DHT22;11062;51.164;16.924;2023-04-24T14:03:17;34.50;35.50
21801;DHT22;11062;51.164;16.924;2023-04-24T14:05:43;34.50;35.70
21801;DHT22;11062;51.164;16.924;2023-04-24T14:08:12;34.50;35.70
21801;DHT22;11062;51.164;16.924;2023-04-24T14:10:48;34.50;35.80
21801;DHT22;11062;51.164;16.924;2023-04-24T14:13:14;34.60;35.90
21801;DHT22;11062;51.164;16.924;2023-04-24T14:15:43;34.70;36.00
21801;DHT22;11062;51.164;16.924;2023-04-24T14:18:13;34.80;35.60
21801;DHT22;11062;51.164;16.924;2023-04-24T14:20:39;34.80;35.50
21801;DHT22;11062;51.164;16.924;2023-04-24T14:23:11;34.90;35.70
21801;DHT22;11062;51.164;16.924;2023-04-24T14:25:43;34.90;35.90
21801;DHT22;11062;51.164;16.924;2023-04-24T14:28:10;34.90;35.70
21801;DHT22;11062;51.164;16.924;2023-04-24T14:30:39;34.90;35.80
21801;DHT22;11062;51.164;16.924;2023-04-24T14:33:06;34.90;35.80
21801;DHT22;11062;51.164;16.924;2023-04-24T14:35:32;35.00;35.90
21801;DHT22;11062;51.164;16.924;2023-04-24T14:37:59;35.00;35.90
21801;DHT22;11062;51.164;16.924;2023-04-24T14:40:25;35.00;35.80
21801;DHT22;11062;51.164;16.924;2023-04-24T14:42:51;34.90;35.80
21801;DHT22;11062;51.164;16.924;2023-04-24T14:45:22;34.90;36.00
21801;DHT22;11062;51.164;16.924;2023-04-24T14:47:49;35.00;36.00
21801;DHT22;11062;51.164;16.924;2023-04-24T14:50:19;35.00;36.00
21801;DHT22;11062;51.164;16.924;2023-04-24T14:52:45;35.10;35.80
21801;DHT22;11062;51.164;16.924;2023-04-24T14:55:12;35.20;35.90
21801;DHT22;11062;51.164;16.924;2023-04-24T14:57:39;35.10;35.40
21801;DHT22;11062;51.164;16.924;2023-04-24T15:00:08;35.20;35.70
21801;DHT22;11062;51.164;16.924;2023-04-24T15:02:37;34.80;35.50
21801;DHT22;11062;51.164;16.924;2023-04-24T15:05:10;34.90;35.70
21801;DHT22;11062;51.164;16.924;2023-04-24T15:07:36;34.80;35.80
21801;DHT22;11062;51.164;16.924;2023-04-24T15:10:03;34.80;36.00
21801;DHT22;11062;51.164;16.924;2023-04-24T15:12:35;34.40;36.30
21801;DHT22;11062;51.164;16.924;2023-04-24T15:15:02;34.30;36.80
21801;DHT22;11062;51.164;16.924;2023-04-24T15:17:30;33.60;37.00
21801;DHT22;11062;51.164;16.924;2023-04-24T15:20:03;33.40;37.80
21801;DHT22;11062;51.164;16.924;2023-04-24T15:22:29;33.20;38.30
21801;DHT22;11062;51.164;16.924;2023-04-24T15:24:55;32.90;38.30
21801;DHT22;11062;51.164;16.924;2023-04-24T15:27:21;33.00;38.30
21801;DHT22;11062;51.164;16.924;2023-04-24T15:29:50;33.20;38.20
21801;DHT22;11062;51.164;16.924;2023-04-24T15:32:16;33.20;38.10
21801;DHT22;11062;51.164;16.924;2023-04-24T15:34:44;33.50;38.30
21801;DHT22;11062;51.164;16.924;2023-04-24T15:37:11;33.70;37.50
21801;DHT22;11062;51.164;16.924;2023-04-24T15:39:37;33.80;37.80
21801;DHT22;11062;51.164;16.924;2023-04-24T15:42:03;33.90;37.40
21801;DHT22;11062;51.164;16.924;2023-04-24T15:44:33;33.90;37.50
21801;DHT22;11062;51.164;16.924;2023-04-24T15:47:00;34.00;37.40
21801;DHT22;11062;51.164;16.924;2023-04-24T15:49:27;34.20;37.40
21801;DHT22;11062;51.164;16.924;2023-04-24T15:51:53;34.10;37.40
21801;DHT22;11062;51.164;16.924;2023-04-24T15:54:19;34.10;37.10
21801;DHT22;11062;51.164;16.924;2023-04-24T15:56:45;34.30;37.30
21801;DHT22;11062;51.164;16.924;2023-04-24T15:59:14;34.40;37.30
21801;DHT22;11062;51.164;16.924;2023-04-24T16:01:43;34.50;37.10
21801;DHT22;11062;51.164;16.924;2023-04-24T16:04:09;34.60;37.60
21801;DHT22;11062;51.164;16.924;2023-04-24T16:06:35;34.70;37.10
21801;DHT22;11062;51.164;16.924;2023-04-24T16:09:01;34.80;36.80
21801;DHT22;11062;51.164;16.924;2023-04-24T16:11:26;34.90;37.00
21801;DHT22;11062;51.164;16.924;2023-04-24T16:13:57;34.90;36.80
21801;DHT22;11062;51.164;16.924;2023-04-24T16:16:27;35.00;37.10
21801;DHT22;11062;51.164;16.924;2023-04-24T16:18:55;35.00;36.60
21801;DHT22;11062;51.164;16.924;2023-04-24T16:21:27;35.00;36.70
21801;DHT22;11062;51.164;16.924;2023-04-24T16:23:53;35.10;36.60
21801;DHT22;11062;51.164;16.924;2023-04-24T16:26:21;35.10;37.00
21801;DHT22;11062;51.164;16.924;2023-04-24T16:28:48;35.10;37.20
21801;DHT22;11062;51.164;16.924;2023-04-24T16:31:14;35.20;37.80
21801;DHT22;11062;51.164;16.924;2023-04-24T16:33:43;35.20;37.00
21801;DHT22;11062;51.164;16.924;2023-04-24T16:36:09;35.20;37.20
21801;DHT22;11062;51.164;16.924;2023-04-24T16:38:36;35.20;37.40
21801;DHT22;11062;51.164;16.924;2023-04-24T16:41:02;35.10;37.60
21801;DHT22;11062;51.164;16.924;2023-04-24T16:43:28;35.10;37.70
21801;DHT22;11062;51.164;16.924;2023-04-24T16:45:54;35.00;37.80
21801;DHT22;11062;51.164;16.924;2023-04-24T16:48:20;34.90;37.80
21801;DHT22;11062;51.164;16.924;2023-04-24T16:50:53;34.90;38.10
21801;DHT22;11062;51.164;16.924;2023-04-24T16:53:22;35.10;38.30
21801;DHT22;11062;51.164;16.924;2023-04-24T16:55:48;35.00;38.70
21801;DHT22;11062;51.164;16.924;2023-04-24T16:58:14;35.00;38.30
21801;DHT22;11062;51.164;16.924;2023-04-24T17:00:39;35.00;38.40
21801;DHT22;11062;51.164;16.924;2023-04-24T17:03:08;35.00;38.50
21801;DHT22;11062;51.164;16.924;2023-04-24T17:05:34;35.00;38.60
21801;DHT22;11062;51.164;16.924;2023-04-24T17:08:00;35.00;38.80
21801;DHT22;11062;51.164;16.924;2023-04-24T17:10:26;35.00;39.00
21801;DHT22;11062;51.164;16.924;2023-04-24T17:12:53;35.00;39.60
21801;DHT22;11062;51.164;16.924;2023-04-24T17:15:19;35.00;39.80
21801;DHT22;11062;51.164;16.924;2023-04-24T17:17:48;35.00;39.80
21801;DHT22;11062;51.164;16.924;2023-04-24T17:20:17;35.00;39.80